sensor_id;sensor_type;location;lat;lon;timestamp;P1;durP1;ratioP1;P2;durP2;ratioP2
14137;SDS011;8199;51.310;9.466;2023-12-20T00:01:36;5.30;;;4.43;;
14137;SDS011;8199;51.310;9.466;2023-12-20T00:04:02;4.65;;;4.25;;
14137;SDS011;8199;51.310;9.466;2023-12-20T00:06:29;3.95;;;3.55;;
14137;SDS011;8199;51.310;9.466;2023-12-20T00:08:55;4.30;;;3.90;;
14137;SDS011;8199;51.310;9.466;2023-12-20T00:11:20;4.40;;;4.00;;
14137;SDS011;8199;51.310;9.466;2023-12-20T00:13:46;7.03;;;4.47;;
14137;SDS011;8199;51.310;9.466;2023-12-20T00:16:11;3.83;;;3.53;;
14137;SDS011;8199;51.310;9.466;2023-12-20T00:18:37;4.50;;;4.10;;
14137;SDS011;8199;51.310;9.466;2023-12-20T00:21:03;3.90;;;3.60;;
14137;SDS011;8199;51.310;9.466;2023-12-20T00:23:29;4.28;;;3.63;;
14137;SDS011;8199;51.310;9.466;2023-12-20T00:25:55;4.30;;;3.90;;
14137;SDS011;8199;51.310;9.466;2023-12-20T00:28:21;3.97;;;3.67;;
14137;SDS011;8199;51.310;9.466;2023-12-20T00:30:47;4.40;;;4.00;;
14137;SDS011;8199;51.310;9.466;2023-12-20T00:33:13;4.00;;;3.70;;
14137;SDS011;8199;51.310;9.466;2023-12-20T00:35:38;3.55;;;3.25;;
14137;SDS011;8199;51.310;9.466;2023-12-20T00:38:04;3.47;;;3.17;;
14137;SDS011;8199;51.310;9.466;2023-12-20T00:40:31;3.30;;;3.10;;
14137;SDS011;8199;51.310;9.466;2023-12-20T00:42:58;3.45;;;3.15;;
14137;SDS011;8199;51.310;9.466;2023-12-20T00:45:23;3.55;;;3.25;;
14137;SDS011;8199;51.310;9.466;2023-12-20T00:47:49;3.60;;;3.30;;
14137;SDS011;8199;51.310;9.466;2023-12-20T00:50:14;3.70;;;3.40;;
14137;SDS011;8199;51.310;9.466;2023-12-20T00:52:40;3.60;;;3.30;;
14137;SDS011;8199;51.310;9.466;2023-12-20T00:55:05;3.58;;;3.28;;
14137;SDS011;8199;51.310;9.466;2023-12-20T00:57:31;3.00;;;2.80;;
14137;SDS011;8199;51.310;9.466;2023-12-20T00:59:57;3.30;;;3.00;;
14137;SDS011;8199;51.310;9.466;2023-12-20T01:02:22;3.33;;;3.03;;
14137;SDS011;8199;51.310;9.466;2023-12-20T01:04:48;3.80;;;3.50;;
14137;SDS011;8199;51.310;9.466;2023-12-20T01:07:13;3.75;;;3.00;;
14137;SDS011;8199;51.310;9.466;2023-12-20T01:09:39;3.55;;;3.00;;
14137;SDS011;8199;51.310;9.466;2023-12-20T01:12:04;3.13;;;2.92;;
14137;SDS011;8199;51.310;9.466;2023-12-20T01:14:30;3.28;;;2.97;;
14137;SDS011;8199;51.310;9.466;2023-12-20T01:16:56;3.17;;;2.97;;
14137;SDS011;8199;51.310;9.466;2023-12-20T01:19:21;3.53;;;3.08;;
14137;SDS011;8199;51.310;9.466;2023-12-20T01:21:47;2.80;;;2.60;;
14137;SDS011;8199;51.310;9.466;2023-12-20T01:24:13;3.20;;;2.90;;
14137;SDS011;8199;51.310;9.466;2023-12-20T01:26:38;3.38;;;3.08;;
14137;SDS011;8199;51.310;9.466;2023-12-20T01:29:04;2.75;;;2.55;;
14137;SDS011;8199;51.310;9.466;2023-12-20T01:31:29;3.03;;;2.72;;
14137;SDS011;8199;51.310;9.466;2023-12-20T01:33:55;2.67;;;2.47;;
14137;SDS011;8199;51.310;9.466;2023-12-20T01:36:20;4.07;;;2.90;;
14137;SDS011;8199;51.310;9.466;2023-12-20T01:38:46;2.92;;;2.70;;
14137;SDS011;8199;51.310;9.466;2023-12-20T01:41:11;2.83;;;2.60;;
14137;SDS011;8199;51.310;9.466;2023-12-20T01:43:37;3.10;;;2.67;;
14137;SDS011;8199;51.310;9.466;2023-12-20T01:46:02;2.97;;;2.50;;
14137;SDS011;8199;51.310;9.466;2023-12-20T01:48:29;2.60;;;2.40;;
14137;SDS011;8199;51.310;9.466;2023-12-20T01:50:57;2.67;;;2.40;;
14137;SDS011;8199;51.310;9.466;2023-12-20T01:53:24;2.60;;;2.40;;
14137;SDS011;8199;51.310;9.466;2023-12-20T01:55:52;2.53;;;2.33;;
14137;SDS011;8199;51.310;9.466;2023-12-20T01:58:19;3.13;;;2.20;;
14137;SDS011;8199;51.310;9.466;2023-12-20T02:00:46;2.92;;;2.40;;
14137;SDS011;8199;51.310;9.466;2023-12-20T02:03:12;2.60;;;2.40;;
14137;SDS011;8199;51.310;9.466;2023-12-20T02:05:38;2.63;;;2.25;;
14137;SDS011;8199;51.310;9.466;2023-12-20T02:08:04;2.45;;;2.25;;
14137;SDS011;8199;51.310;9.466;2023-12-20T02:10:30;2.50;;;2.30;;
14137;SDS011;8199;51.310;9.466;2023-12-20T02:12:56;2.30;;;2.10;;
14137;SDS011;8199;51.310;9.466;2023-12-20T02:15:22;2.45;;;2.25;;
14137;SDS011;8199;51.310;9.466;2023-12-20T02:17:47;2.30;;;2.10;;
14137;SDS011;8199;51.310;9.466;2023-12-20T02:20:14;2.30;;;2.10;;
14137;SDS011;8199;51.310;9.466;2023-12-20T02:22:39;2.30;;;2.10;;
14137;SDS011;8199;51.310;9.466;2023-12-20T02:25:05;2.45;;;2.25;;
14137;SDS011;8199;51.310;9.466;2023-12-20T02:27:31;2.40;;;2.20;;
14137;SDS011;8199;51.310;9.466;2023-12-20T02:29:56;2.10;;;1.92;;
14137;SDS011;8199;51.310;9.466;2023-12-20T02:32:22;2.33;;;2.00;;
14137;SDS011;8199;51.310;9.466;2023-12-20T02:34:52;2.30;;;2.10;;
14137;SDS011;8199;51.310;9.466;2023-12-20T02:37:18;2.20;;;2.10;;
14137;SDS011;8199;51.310;9.466;2023-12-20T02:39:43;2.50;;;1.90;;
14137;SDS011;8199;51.310;9.466;2023-12-20T02:42:09;2.30;;;2.10;;
14137;SDS011;8199;51.310;9.466;2023-12-20T02:44:34;2.30;;;2.10;;
14137;SDS011;8199;51.310;9.466;2023-12-20T02:47:01;2.28;;;2.08;;
14137;SDS011;8199;51.310;9.466;2023-12-20T02:49:27;2.33;;;2.05;;
14137;SDS011;8199;51.310;9.466;2023-12-20T02:51:52;2.13;;;1.90;;
14137;SDS011;8199;51.310;9.466;2023-12-20T02:54:18;3.65;;;1.65;;
14137;SDS011;8199;51.310;9.466;2023-12-20T02:56:43;1.92;;;1.80;;
14137;SDS011;8199;51.310;9.466;2023-12-20T02:59:09;2.10;;;1.90;;
14137;SDS011;8199;51.310;9.466;2023-12-20T03:01:34;2.22;;;1.45;;
14137;SDS011;8199;51.310;9.466;2023-12-20T03:04:06;1.75;;;1.65;;
14137;SDS011;8199;51.310;9.466;2023-12-20T03:06:31;1.92;;;1.83;;
14137;SDS011;8199;51.310;9.466;2023-12-20T03:08:57;2.30;;;2.10;;
14137;SDS011;8199;51.310;9.466;2023-12-20T03:11:26;2.05;;;1.88;;
14137;SDS011;8199;51.310;9.466;2023-12-20T03:13:52;3.38;;;1.80;;
14137;SDS011;8199;51.310;9.466;2023-12-20T03:16:17;1.77;;;1.67;;
14137;SDS011;8199;51.310;9.466;2023-12-20T03:18:43;1.73;;;1.63;;
14137;SDS011;8199;51.310;9.466;2023-12-20T03:21:09;2.22;;;1.80;;
14137;SDS011;8199;51.310;9.466;2023-12-20T03:23:34;2.30;;;2.13;;
14137;SDS011;8199;51.310;9.466;2023-12-20T03:26:00;1.83;;;1.52;;
14137;SDS011;8199;51.310;9.466;2023-12-20T03:28:26;4.80;;;1.85;;
14137;SDS011;8199;51.310;9.466;2023-12-20T03:30:52;2.15;;;1.50;;
14137;SDS011;8199;51.310;9.466;2023-12-20T03:33:18;1.67;;;1.58;;
14137;SDS011;8199;51.310;9.466;2023-12-20T03:35:43;2.03;;;1.83;;
14137;SDS011;8199;51.310;9.466;2023-12-20T03:38:09;1.75;;;1.65;;
14137;SDS011;8199;51.310;9.466;2023-12-20T03:40:34;1.60;;;1.50;;
14137;SDS011;8199;51.310;9.466;2023-12-20T03:43:00;2.17;;;1.70;;
14137;SDS011;8199;51.310;9.466;2023-12-20T03:45:26;2.45;;;2.00;;
14137;SDS011;8199;51.310;9.466;2023-12-20T03:47:51;1.80;;;1.70;;
14137;SDS011;8199;51.310;9.466;2023-12-20T03:50:24;1.60;;;1.50;;
14137;SDS011;8199;51.310;9.466;2023-12-20T03:52:50;1.50;;;1.40;;
14137;SDS011;8199;51.310;9.466;2023-12-20T03:55:16;1.95;;;1.63;;
14137;SDS011;8199;51.310;9.466;2023-12-20T03:57:42;1.40;;;1.30;;
14137;SDS011;8199;51.310;9.466;2023-12-20T04:00:07;1.42;;;1.33;;
14137;SDS011;8199;51.310;9.466;2023-12-20T04:02:39;2.13;;;1.90;;
14137;SDS011;8199;51.310;9.466;2023-12-20T04:05:05;1.45;;;1.35;;
14137;SDS011;8199;51.310;9.466;2023-12-20T04:07:32;3.38;;;1.40;;
14137;SDS011;8199;51.310;9.466;2023-12-20T04:09:57;1.67;;;1.58;;
14137;SDS011;8199;51.310;9.466;2023-12-20T04:12:23;1.52;;;1.42;;
14137;SDS011;8199;51.310;9.466;2023-12-20T04:14:49;1.60;;;1.50;;
14137;SDS011;8199;51.310;9.466;2023-12-20T04:17:15;1.85;;;1.55;;
14137;SDS011;8199;51.310;9.466;2023-12-20T04:19:41;1.38;;;1.27;;
14137;SDS011;8199;51.310;9.466;2023-12-20T04:22:07;1.60;;;1.50;;
14137;SDS011;8199;51.310;9.466;2023-12-20T04:24:32;1.88;;;1.40;;
14137;SDS011;8199;51.310;9.466;2023-12-20T04:26:58;1.58;;;1.20;;
14137;SDS011;8199;51.310;9.466;2023-12-20T04:29:23;1.55;;;1.45;;
14137;SDS011;8199;51.310;9.466;2023-12-20T04:31:49;1.50;;;1.40;;
14137;SDS011;8199;51.310;9.466;2023-12-20T04:34:16;2.13;;;1.42;;
14137;SDS011;8199;51.310;9.466;2023-12-20T04:36:42;1.40;;;1.20;;
14137;SDS011;8199;51.310;9.466;2023-12-20T04:39:08;1.35;;;1.25;;
14137;SDS011;8199;51.310;9.466;2023-12-20T04:41:33;1.40;;;1.30;;
14137;SDS011;8199;51.310;9.466;2023-12-20T04:43:59;1.30;;;1.20;;
14137;SDS011;8199;51.310;9.466;2023-12-20T04:46:25;1.75;;;1.38;;
14137;SDS011;8199;51.310;9.466;2023-12-20T04:48:51;2.08;;;1.27;;
14137;SDS011;8199;51.310;9.466;2023-12-20T04:51:16;1.40;;;1.30;;
14137;SDS011;8199;51.310;9.466;2023-12-20T04:53:42;5.43;;;1.70;;
14137;SDS011;8199;51.310;9.466;2023-12-20T04:56:08;1.35;;;1.20;;
14137;SDS011;8199;51.310;9.466;2023-12-20T04:58:33;1.40;;;1.30;;
14137;SDS011;8199;51.310;9.466;2023-12-20T05:00:59;1.45;;;1.23;;
14137;SDS011;8199;51.310;9.466;2023-12-20T05:03:24;1.70;;;1.10;;
14137;SDS011;8199;51.310;9.466;2023-12-20T05:05:50;1.17;;;1.08;;
14137;SDS011;8199;51.310;9.466;2023-12-20T05:08:16;1.30;;;1.20;;
14137;SDS011;8199;51.310;9.466;2023-12-20T05:10:41;1.67;;;1.20;;
14137;SDS011;8199;51.310;9.466;2023-12-20T05:13:07;1.75;;;1.00;;
14137;SDS011;8199;51.310;9.466;2023-12-20T05:15:32;1.38;;;1.00;;
14137;SDS011;8199;51.310;9.466;2023-12-20T05:17:58;1.73;;;1.23;;
14137;SDS011;8199;51.310;9.466;2023-12-20T05:20:24;1.40;;;1.15;;
14137;SDS011;8199;51.310;9.466;2023-12-20T05:22:49;1.38;;;1.10;;
14137;SDS011;8199;51.310;9.466;2023-12-20T05:25:15;1.58;;;1.13;;
14137;SDS011;8199;51.310;9.466;2023-12-20T05:27:40;1.40;;;1.30;;
14137;SDS011;8199;51.310;9.466;2023-12-20T05:30:06;1.67;;;1.50;;
14137;SDS011;8199;51.310;9.466;2023-12-20T05:32:32;1.05;;;0.93;;
14137;SDS011;8199;51.310;9.466;2023-12-20T05:34:57;1.17;;;1.08;;
14137;SDS011;8199;51.310;9.466;2023-12-20T05:37:23;1.50;;;1.10;;
14137;SDS011;8199;51.310;9.466;2023-12-20T05:39:48;1.20;;;1.02;;
14137;SDS011;8199;51.310;9.466;2023-12-20T05:42:14;1.25;;;1.00;;
14137;SDS011;8199;51.310;9.466;2023-12-20T05:44:40;1.52;;;1.10;;
14137;SDS011;8199;51.310;9.466;2023-12-20T05:47:05;2.35;;;1.00;;
14137;SDS011;8199;51.310;9.466;2023-12-20T05:49:31;3.03;;;1.30;;
14137;SDS011;8199;51.310;9.466;2023-12-20T05:51:56;9.25;;;1.30;;
14137;SDS011;8199;51.310;9.466;2023-12-20T05:54:22;7.57;;;1.73;;
14137;SDS011;8199;51.310;9.466;2023-12-20T05:56:48;7.65;;;1.85;;
14137;SDS011;8199;51.310;9.466;2023-12-20T05:59:13;6.55;;;1.58;;
14137;SDS011;8199;51.310;9.466;2023-12-20T06:01:39;5.45;;;1.67;;
14137;SDS011;8199;51.310;9.466;2023-12-20T06:04:04;5.00;;;1.70;;
14137;SDS011;8199;51.310;9.466;2023-12-20T06:06:30;6.10;;;1.60;;
14137;SDS011;8199;51.310;9.466;2023-12-20T06:08:56;2.85;;;1.67;;
14137;SDS011;8199;51.310;9.466;2023-12-20T06:11:21;7.25;;;1.50;;
14137;SDS011;8199;51.310;9.466;2023-12-20T06:13:47;5.97;;;1.52;;
14137;SDS011;8199;51.310;9.466;2023-12-20T06:16:14;4.13;;;1.50;;
14137;SDS011;8199;51.310;9.466;2023-12-20T06:18:40;5.13;;;1.40;;
14137;SDS011;8199;51.310;9.466;2023-12-20T06:21:05;3.67;;;1.20;;
14137;SDS011;8199;51.310;9.466;2023-12-20T06:23:32;3.75;;;1.50;;
14137;SDS011;8199;51.310;9.466;2023-12-20T06:25:57;3.00;;;1.52;;
14137;SDS011;8199;51.310;9.466;2023-12-20T06:28:23;6.82;;;1.25;;
14137;SDS011;8199;51.310;9.466;2023-12-20T06:30:48;5.78;;;1.60;;
14137;SDS011;8199;51.310;9.466;2023-12-20T06:33:14;3.40;;;1.10;;
14137;SDS011;8199;51.310;9.466;2023-12-20T06:35:40;2.42;;;1.40;;
14137;SDS011;8199;51.310;9.466;2023-12-20T06:38:06;3.58;;;1.48;;
14137;SDS011;8199;51.310;9.466;2023-12-20T06:40:31;1.30;;;1.10;;
14137;SDS011;8199;51.310;9.466;2023-12-20T06:42:57;2.70;;;1.23;;
14137;SDS011;8199;51.310;9.466;2023-12-20T06:45:24;4.28;;;1.10;;
14137;SDS011;8199;51.310;9.466;2023-12-20T06:47:50;2.88;;;1.20;;
14137;SDS011;8199;51.310;9.466;2023-12-20T06:50:15;4.78;;;1.40;;
14137;SDS011;8199;51.310;9.466;2023-12-20T06:52:41;2.75;;;1.20;;
14137;SDS011;8199;51.310;9.466;2023-12-20T06:55:07;2.13;;;1.00;;
14137;SDS011;8199;51.310;9.466;2023-12-20T06:57:32;2.17;;;1.38;;
14137;SDS011;8199;51.310;9.466;2023-12-20T06:59:58;1.92;;;1.30;;
14137;SDS011;8199;51.310;9.466;2023-12-20T07:02:23;2.40;;;1.23;;
14137;SDS011;8199;51.310;9.466;2023-12-20T07:04:49;2.25;;;1.33;;
14137;SDS011;8199;51.310;9.466;2023-12-20T07:07:14;2.42;;;1.10;;
14137;SDS011;8199;51.310;9.466;2023-12-20T07:09:40;3.17;;;0.90;;
14137;SDS011;8199;51.310;9.466;2023-12-20T07:12:07;2.30;;;1.10;;
14137;SDS011;8199;51.310;9.466;2023-12-20T07:14:34;2.70;;;1.25;;
14137;SDS011;8199;51.310;9.466;2023-12-20T07:16:59;2.90;;;1.10;;
14137;SDS011;8199;51.310;9.466;2023-12-20T07:19:25;4.60;;;1.40;;
14137;SDS011;8199;51.310;9.466;2023-12-20T07:21:50;4.22;;;1.40;;
14137;SDS011;8199;51.310;9.466;2023-12-20T07:24:16;3.88;;;1.30;;
14137;SDS011;8199;51.310;9.466;2023-12-20T07:26:42;3.92;;;1.35;;
14137;SDS011;8199;51.310;9.466;2023-12-20T07:29:08;4.93;;;1.17;;
14137;SDS011;8199;51.310;9.466;2023-12-20T07:31:33;4.38;;;1.20;;
14137;SDS011;8199;51.310;9.466;2023-12-20T07:33:59;2.30;;;1.20;;
14137;SDS011;8199;51.310;9.466;2023-12-20T07:36:25;3.55;;;1.30;;
14137;SDS011;8199;51.310;9.466;2023-12-20T07:38:51;2.78;;;1.25;;
14137;SDS011;8199;51.310;9.466;2023-12-20T07:41:16;1.92;;;1.13;;
14137;SDS011;8199;51.310;9.466;2023-12-20T07:43:42;2.33;;;1.27;;
14137;SDS011;8199;51.310;9.466;2023-12-20T07:46:08;2.58;;;1.38;;
14137;SDS011;8199;51.310;9.466;2023-12-20T07:48:34;1.95;;;1.20;;
14137;SDS011;8199;51.310;9.466;2023-12-20T07:51:01;1.45;;;1.10;;
14137;SDS011;8199;51.310;9.466;2023-12-20T07:53:27;2.83;;;1.20;;
14137;SDS011;8199;51.310;9.466;2023-12-20T07:55:52;1.95;;;1.08;;
14137;SDS011;8199;51.310;9.466;2023-12-20T07:58:18;2.47;;;1.17;;
14137;SDS011;8199;51.310;9.466;2023-12-20T08:00:44;1.85;;;1.27;;
14137;SDS011;8199;51.310;9.466;2023-12-20T08:03:09;1.67;;;1.17;;
14137;SDS011;8199;51.310;9.466;2023-12-20T08:05:35;2.95;;;1.40;;
14137;SDS011;8199;51.310;9.466;2023-12-20T08:08:01;3.97;;;1.48;;
14137;SDS011;8199;51.310;9.466;2023-12-20T08:10:26;1.58;;;1.13;;
14137;SDS011;8199;51.310;9.466;2023-12-20T08:12:54;2.30;;;1.10;;
14137;SDS011;8199;51.310;9.466;2023-12-20T08:15:20;2.03;;;1.30;;
14137;SDS011;8199;51.310;9.466;2023-12-20T08:17:45;1.48;;;1.27;;
14137;SDS011;8199;51.310;9.466;2023-12-20T08:20:11;1.55;;;1.15;;
14137;SDS011;8199;51.310;9.466;2023-12-20T08:22:36;1.60;;;1.38;;
14137;SDS011;8199;51.310;9.466;2023-12-20T08:25:02;1.85;;;1.20;;
14137;SDS011;8199;51.310;9.466;2023-12-20T08:27:28;2.75;;;1.60;;
14137;SDS011;8199;51.310;9.466;2023-12-20T08:29:53;2.42;;;1.20;;
14137;SDS011;8199;51.310;9.466;2023-12-20T08:32:19;3.63;;;1.55;;
14137;SDS011;8199;51.310;9.466;2023-12-20T08:34:44;4.47;;;1.33;;
14137;SDS011;8199;51.310;9.466;2023-12-20T08:37:10;3.35;;;1.60;;
14137;SDS011;8199;51.310;9.466;2023-12-20T08:39:35;1.38;;;1.08;;
14137;SDS011;8199;51.310;9.466;2023-12-20T08:42:01;2.00;;;1.02;;
14137;SDS011;8199;51.310;9.466;2023-12-20T08:44:27;3.33;;;1.42;;
14137;SDS011;8199;51.310;9.466;2023-12-20T08:46:52;1.98;;;1.35;;
14137;SDS011;8199;51.310;9.466;2023-12-20T08:49:18;4.95;;;1.50;;
14137;SDS011;8199;51.310;9.466;2023-12-20T08:51:43;1.65;;;1.27;;
14137;SDS011;8199;51.310;9.466;2023-12-20T08:54:09;2.42;;;1.38;;
14137;SDS011;8199;51.310;9.466;2023-12-20T08:56:35;2.55;;;1.20;;
14137;SDS011;8199;51.310;9.466;2023-12-20T08:59:00;2.47;;;1.40;;
14137;SDS011;8199;51.310;9.466;2023-12-20T09:01:26;2.00;;;1.30;;
14137;SDS011;8199;51.310;9.466;2023-12-20T09:03:51;1.10;;;1.00;;
14137;SDS011;8199;51.310;9.466;2023-12-20T09:06:17;3.42;;;1.52;;
14137;SDS011;8199;51.310;9.466;2023-12-20T09:08:42;2.40;;;1.10;;
14137;SDS011;8199;51.310;9.466;2023-12-20T09:11:08;1.33;;;1.17;;
14137;SDS011;8199;51.310;9.466;2023-12-20T09:13:34;2.70;;;1.27;;
14137;SDS011;8199;51.310;9.466;2023-12-20T09:15:59;2.80;;;1.45;;
14137;SDS011;8199;51.310;9.466;2023-12-20T09:18:25;2.85;;;1.60;;
14137;SDS011;8199;51.310;9.466;2023-12-20T09:20:50;1.20;;;1.10;;
14137;SDS011;8199;51.310;9.466;2023-12-20T09:23:16;2.17;;;1.20;;
14137;SDS011;8199;51.310;9.466;2023-12-20T09:25:43;1.73;;;1.10;;
14137;SDS011;8199;51.310;9.466;2023-12-20T09:28:09;1.90;;;1.10;;
14137;SDS011;8199;51.310;9.466;2023-12-20T09:30:34;1.45;;;1.13;;
14137;SDS011;8199;51.310;9.466;2023-12-20T09:33:04;1.50;;;1.40;;
14137;SDS011;8199;51.310;9.466;2023-12-20T09:35:31;1.35;;;1.23;;
14137;SDS011;8199;51.310;9.466;2023-12-20T09:37:57;1.33;;;1.20;;
14137;SDS011;8199;51.310;9.466;2023-12-20T09:40:22;2.78;;;1.50;;
14137;SDS011;8199;51.310;9.466;2023-12-20T09:42:58;1.63;;;1.00;;
14137;SDS011;8199;51.310;9.466;2023-12-20T09:45:27;1.80;;;1.15;;
14137;SDS011;8199;51.310;9.466;2023-12-20T09:47:52;2.05;;;1.20;;
14137;SDS011;8199;51.310;9.466;2023-12-20T09:50:19;1.25;;;1.02;;
14137;SDS011;8199;51.310;9.466;2023-12-20T09:52:49;1.30;;;1.15;;
14137;SDS011;8199;51.310;9.466;2023-12-20T09:55:16;3.35;;;1.30;;
14137;SDS011;8199;51.310;9.466;2023-12-20T09:57:44;1.27;;;1.15;;
14137;SDS011;8199;51.310;9.466;2023-12-20T10:00:10;2.47;;;1.48;;
14137;SDS011;8199;51.310;9.466;2023-12-20T10:02:36;1.80;;;1.35;;
14137;SDS011;8199;51.310;9.466;2023-12-20T10:05:06;2.17;;;1.13;;
14137;SDS011;8199;51.310;9.466;2023-12-20T10:07:36;1.50;;;1.17;;
14137;SDS011;8199;51.310;9.466;2023-12-20T10:10:01;1.85;;;1.23;;
14137;SDS011;8199;51.310;9.466;2023-12-20T10:12:27;1.15;;;1.05;;
14137;SDS011;8199;51.310;9.466;2023-12-20T10:14:53;2.15;;;1.33;;
14137;SDS011;8199;51.310;9.466;2023-12-20T10:17:18;1.88;;;1.20;;
14137;SDS011;8199;51.310;9.466;2023-12-20T10:19:46;1.40;;;1.20;;
14137;SDS011;8199;51.310;9.466;2023-12-20T10:22:12;1.42;;;1.15;;
14137;SDS011;8199;51.310;9.466;2023-12-20T10:24:37;1.48;;;1.25;;
14137;SDS011;8199;51.310;9.466;2023-12-20T10:27:06;2.20;;;1.17;;
14137;SDS011;8199;51.310;9.466;2023-12-20T10:29:33;1.20;;;0.90;;
14137;SDS011;8199;51.310;9.466;2023-12-20T10:32:00;1.75;;;1.30;;
14137;SDS011;8199;51.310;9.466;2023-12-20T10:35:01;1.60;;;1.02;;
14137;SDS011;8199;51.310;9.466;2023-12-20T10:37:27;2.85;;;1.67;;
14137;SDS011;8199;51.310;9.466;2023-12-20T10:39:53;1.98;;;1.33;;
14137;SDS011;8199;51.310;9.466;2023-12-20T10:42:22;1.38;;;1.10;;
14137;SDS011;8199;51.310;9.466;2023-12-20T10:44:51;1.95;;;1.15;;
14137;SDS011;8199;51.310;9.466;2023-12-20T10:47:18;2.00;;;1.25;;
14137;SDS011;8199;51.310;9.466;2023-12-20T10:49:45;1.23;;;1.10;;
14137;SDS011;8199;51.310;9.466;2023-12-20T10:52:11;1.77;;;1.50;;
14137;SDS011;8199;51.310;9.466;2023-12-20T10:54:38;1.40;;;1.00;;
14137;SDS011;8199;51.310;9.466;2023-12-20T10:57:07;1.50;;;1.30;;
14137;SDS011;8199;51.310;9.466;2023-12-20T10:59:33;1.15;;;1.05;;
14137;SDS011;8199;51.310;9.466;2023-12-20T11:02:04;1.92;;;1.42;;
14137;SDS011;8199;51.310;9.466;2023-12-20T11:07:20;1.77;;;1.20;;
14137;SDS011;8199;51.310;9.466;2023-12-20T11:12:46;1.80;;;1.55;;
14137;SDS011;8199;51.310;9.466;2023-12-20T11:15:16;2.08;;;1.05;;
14137;SDS011;8199;51.310;9.466;2023-12-20T11:17:44;1.20;;;1.10;;
14137;SDS011;8199;51.310;9.466;2023-12-20T11:20:11;1.38;;;1.20;;
14137;SDS011;8199;51.310;9.466;2023-12-20T11:22:37;1.20;;;1.10;;
14137;SDS011;8199;51.310;9.466;2023-12-20T11:25:07;1.48;;;1.10;;
14137;SDS011;8199;51.310;9.466;2023-12-20T11:27:35;1.25;;;1.15;;
14137;SDS011;8199;51.310;9.466;2023-12-20T11:30:04;1.27;;;1.10;;
14137;SDS011;8199;51.310;9.466;2023-12-20T11:32:34;1.60;;;1.02;;
14137;SDS011;8199;51.310;9.466;2023-12-20T11:37:41;1.48;;;1.38;;
14137;SDS011;8199;51.310;9.466;2023-12-20T11:40:08;1.10;;;1.00;;
14137;SDS011;8199;51.310;9.466;2023-12-20T11:42:40;1.17;;;1.08;;
14137;SDS011;8199;51.310;9.466;2023-12-20T11:45:10;1.05;;;0.80;;
14137;SDS011;8199;51.310;9.466;2023-12-20T11:47:40;1.33;;;1.23;;
14137;SDS011;8199;51.310;9.466;2023-12-20T11:50:06;0.88;;;0.80;;
14137;SDS011;8199;51.310;9.466;2023-12-20T11:52:32;1.02;;;0.80;;
14137;SDS011;8199;51.310;9.466;2023-12-20T11:54:58;1.38;;;1.27;;
14137;SDS011;8199;51.310;9.466;2023-12-20T11:57:24;2.00;;;1.45;;
14137;SDS011;8199;51.310;9.466;2023-12-20T11:59:50;1.27;;;1.10;;
14137;SDS011;8199;51.310;9.466;2023-12-20T12:02:15;1.50;;;1.10;;
14137;SDS011;8199;51.310;9.466;2023-12-20T12:04:41;1.50;;;1.40;;
14137;SDS011;8199;51.310;9.466;2023-12-20T12:07:07;1.25;;;1.10;;
14137;SDS011;8199;51.310;9.466;2023-12-20T12:09:32;2.17;;;1.02;;
14137;SDS011;8199;51.310;9.466;2023-12-20T12:11:58;1.20;;;1.10;;
14137;SDS011;8199;51.310;9.466;2023-12-20T12:14:24;1.75;;;1.20;;
14137;SDS011;8199;51.310;9.466;2023-12-20T12:16:50;1.33;;;1.10;;
14137;SDS011;8199;51.310;9.466;2023-12-20T12:19:21;1.23;;;1.13;;
14137;SDS011;8199;51.310;9.466;2023-12-20T12:21:48;2.17;;;1.10;;
14137;SDS011;8199;51.310;9.466;2023-12-20T12:24:14;1.65;;;1.30;;
14137;SDS011;8199;51.310;9.466;2023-12-20T12:26:40;1.55;;;1.30;;
14137;SDS011;8199;51.310;9.466;2023-12-20T12:29:08;0.90;;;0.90;;
14137;SDS011;8199;51.310;9.466;2023-12-20T12:31:34;1.70;;;1.00;;
14137;SDS011;8199;51.310;9.466;2023-12-20T12:34:00;2.95;;;1.13;;
14137;SDS011;8199;51.310;9.466;2023-12-20T12:36:27;2.45;;;1.30;;
14137;SDS011;8199;51.310;9.466;2023-12-20T12:38:55;1.15;;;1.00;;
14137;SDS011;8199;51.310;9.466;2023-12-20T12:41:22;1.63;;;1.02;;
14137;SDS011;8199;51.310;9.466;2023-12-20T12:43:48;1.77;;;1.38;;
14137;SDS011;8199;51.310;9.466;2023-12-20T12:46:13;2.60;;;1.33;;
14137;SDS011;8199;51.310;9.466;2023-12-20T12:48:39;1.67;;;1.42;;
14137;SDS011;8199;51.310;9.466;2023-12-20T12:51:05;1.25;;;1.10;;
14137;SDS011;8199;51.310;9.466;2023-12-20T12:53:32;1.33;;;1.17;;
14137;SDS011;8199;51.310;9.466;2023-12-20T12:55:57;1.55;;;1.17;;
14137;SDS011;8199;51.310;9.466;2023-12-20T12:58:23;1.35;;;1.20;;
14137;SDS011;8199;51.310;9.466;2023-12-20T13:00:50;1.90;;;1.20;;
14137;SDS011;8199;51.310;9.466;2023-12-20T13:03:15;1.23;;;1.00;;
14137;SDS011;8199;51.310;9.466;2023-12-20T13:05:41;1.35;;;1.05;;
14137;SDS011;8199;51.310;9.466;2023-12-20T13:08:07;1.70;;;1.10;;
14137;SDS011;8199;51.310;9.466;2023-12-20T13:10:34;1.23;;;0.90;;
14137;SDS011;8199;51.310;9.466;2023-12-20T13:13:00;1.10;;;1.00;;
14137;SDS011;8199;51.310;9.466;2023-12-20T13:15:25;2.13;;;1.20;;
14137;SDS011;8199;51.310;9.466;2023-12-20T13:17:51;1.55;;;1.10;;
14137;SDS011;8199;51.310;9.466;2023-12-20T13:20:16;1.30;;;1.20;;
14137;SDS011;8199;51.310;9.466;2023-12-20T13:22:42;1.10;;;1.00;;
14137;SDS011;8199;51.310;9.466;2023-12-20T13:25:07;1.20;;;1.10;;
14137;SDS011;8199;51.310;9.466;2023-12-20T13:27:33;1.23;;;1.13;;
14137;SDS011;8199;51.310;9.466;2023-12-20T13:29:59;1.67;;;1.42;;
14137;SDS011;8199;51.310;9.466;2023-12-20T13:32:25;3.17;;;1.52;;
14137;SDS011;8199;51.310;9.466;2023-12-20T13:34:50;1.05;;;0.95;;
14137;SDS011;8199;51.310;9.466;2023-12-20T13:37:16;1.17;;;1.08;;
14137;SDS011;8199;51.310;9.466;2023-12-20T13:39:41;1.30;;;1.20;;
14137;SDS011;8199;51.310;9.466;2023-12-20T13:42:07;2.70;;;1.27;;
14137;SDS011;8199;51.310;9.466;2023-12-20T13:44:33;1.38;;;1.20;;
14137;SDS011;8199;51.310;9.466;2023-12-20T13:46:59;1.10;;;1.00;;
14137;SDS011;8199;51.310;9.466;2023-12-20T13:49:24;1.10;;;1.00;;
14137;SDS011;8199;51.310;9.466;2023-12-20T13:51:50;1.92;;;1.17;;
14137;SDS011;8199;51.310;9.466;2023-12-20T13:54:16;1.38;;;1.05;;
14137;SDS011;8199;51.310;9.466;2023-12-20T13:56:45;1.25;;;1.13;;
14137;SDS011;8199;51.310;9.466;2023-12-20T13:59:10;1.20;;;1.10;;
14137;SDS011;8199;51.310;9.466;2023-12-20T14:01:37;1.23;;;1.10;;
14137;SDS011;8199;51.310;9.466;2023-12-20T14:04:03;1.25;;;1.15;;
14137;SDS011;8199;51.310;9.466;2023-12-20T14:06:28;2.08;;;1.17;;
14137;SDS011;8199;51.310;9.466;2023-12-20T14:08:54;1.23;;;1.13;;
14137;SDS011;8199;51.310;9.466;2023-12-20T14:11:20;1.67;;;1.20;;
14137;SDS011;8199;51.310;9.466;2023-12-20T14:13:46;1.23;;;0.90;;
14137;SDS011;8199;51.310;9.466;2023-12-20T14:16:11;1.33;;;1.17;;
14137;SDS011;8199;51.310;9.466;2023-12-20T14:18:37;1.75;;;1.13;;
14137;SDS011;8199;51.310;9.466;2023-12-20T14:21:05;1.20;;;1.10;;
14137;SDS011;8199;51.310;9.466;2023-12-20T14:23:31;1.10;;;1.00;;
14137;SDS011;8199;51.310;9.466;2023-12-20T14:25:58;1.10;;;1.10;;
14137;SDS011;8199;51.310;9.466;2023-12-20T14:28:24;1.00;;;0.90;;
14137;SDS011;8199;51.310;9.466;2023-12-20T14:30:50;1.15;;;1.05;;
14137;SDS011;8199;51.310;9.466;2023-12-20T14:33:16;1.23;;;1.00;;
14137;SDS011;8199;51.310;9.466;2023-12-20T14:35:41;3.25;;;1.10;;
14137;SDS011;8199;51.310;9.466;2023-12-20T14:38:09;1.35;;;1.00;;
14137;SDS011;8199;51.310;9.466;2023-12-20T14:40:34;1.75;;;1.30;;
14137;SDS011;8199;51.310;9.466;2023-12-20T14:43:00;1.83;;;1.05;;
14137;SDS011;8199;51.310;9.466;2023-12-20T14:45:27;2.28;;;1.00;;
14137;SDS011;8199;51.310;9.466;2023-12-20T14:47:52;1.80;;;1.20;;
14137;SDS011;8199;51.310;9.466;2023-12-20T14:50:18;1.38;;;1.10;;
14137;SDS011;8199;51.310;9.466;2023-12-20T14:52:43;3.05;;;0.98;;
14137;SDS011;8199;51.310;9.466;2023-12-20T14:55:10;1.25;;;1.15;;
14137;SDS011;8199;51.310;9.466;2023-12-20T14:57:36;1.35;;;1.25;;
14137;SDS011;8199;51.310;9.466;2023-12-20T15:00:02;2.67;;;1.27;;
14137;SDS011;8199;51.310;9.466;2023-12-20T15:02:27;4.45;;;2.13;;